sensor_id;sensor_type;location;lat;lon;timestamp;pressure;altitude;pressure_sealevel;temperature;humidity
54854;BME280;40747;49.480;8.658;2022-12-05T00:01:29;100202.44;;;4.06;100.00
54854;BME280;40747;49.480;8.658;2022-12-05T00:03:58;100201.63;;;3.93;100.00
54854;BME280;40747;49.480;8.658;2022-12-05T00:06:25;100198.19;;;3.88;100.00
54854;BME280;40747;49.480;8.658;2022-12-05T00:08:50;100205.09;;;3.97;100.00
54854;BME280;40747;49.480;8.658;2022-12-05T00:11:18;100212.84;;;4.03;100.00
54854;BME280;40747;49.480;8.658;2022-12-05T00:13:44;100205.16;;;3.84;100.00
54854;BME280;40747;49.480;8.658;2022-12-05T00:16:12;100210.34;;;3.90;100.00
54854;BME280;40747;49.480;8.658;2022-12-05T00:18:38;100205.06;;;3.98;100.00
54854;BME280;40747;49.480;8.658;2022-12-05T00:21:05;100216.31;;;4.06;100.00
54854;BME280;40747;49.480;8.658;2022-12-05T00:23:30;100209.44;;;3.94;100.00
54854;BME280;40747;49.480;8.658;2022-12-05T00:25:56;100218.09;;;3.98;100.00
54854;BME280;40747;49.480;8.658;2022-12-05T00:28:21;100218.09;;;4.04;100.00
54854;BME280;40747;49.480;8.658;2022-12-05T00:30:47;100224.16;;;4.00;100.00
54854;BME280;40747;49.480;8.658;2022-12-05T00:33:12;100219.94;;;3.84;100.00
54854;BME280;40747;49.480;8.658;2022-12-05T00:35:37;100208.59;;;3.85;100.00
54854;BME280;40747;49.480;8.658;2022-12-05T00:38:03;100218.06;;;4.03;100.00
54854;BME280;40747;49.480;8.658;2022-12-05T00:40:28;100198.22;;;3.77;100.00
54854;BME280;40747;49.480;8.658;2022-12-05T00:42:53;100227.63;;;4.02;100.00
54854;BME280;40747;49.480;8.658;2022-12-05T00:45:19;100231.06;;;4.12;100.00
54854;BME280;40747;49.480;8.658;2022-12-05T00:47:44;100241.44;;;4.20;100.00
54854;BME280;40747;49.480;8.658;2022-12-05T00:50:09;100233.66;;;4.14;100.00
54854;BME280;40747;49.480;8.658;2022-12-05T00:52:35;100223.28;;;4.03;100.00
54854;BME280;40747;49.480;8.658;2022-12-05T00:55:00;100240.66;;;4.05;100.00
54854;BME280;40747;49.480;8.658;2022-12-05T00:57:25;100245.84;;;4.08;100.00
54854;BME280;40747;49.480;8.658;2022-12-05T00:59:51;100237.25;;;3.94;100.00
54854;BME280;40747;49.480;8.658;2022-12-05T01:02:16;100246.81;;;3.92;100.00
54854;BME280;40747;49.480;8.658;2022-12-05T01:04:41;100252.00;;;3.92;100.00
54854;BME280;40747;49.480;8.658;2022-12-05T01:07:07;100247.66;;;3.91;100.00
54854;BME280;40747;49.480;8.658;2022-12-05T01:09:32;100245.06;;;3.89;100.00
54854;BME280;40747;49.480;8.658;2022-12-05T01:11:57;100247.69;;;3.89;100.00
54854;BME280;40747;49.480;8.658;2022-12-05T01:14:24;100252.88;;;3.91;100.00
54854;BME280;40747;49.480;8.658;2022-12-05T01:16:52;100245.09;;;3.85;100.00
54854;BME280;40747;49.480;8.658;2022-12-05T01:19:29;100250.34;;;3.79;100.00
54854;BME280;40747;49.480;8.658;2022-12-05T01:21:55;100258.16;;;3.79;100.00
54854;BME280;40747;49.480;8.658;2022-12-05T01:24:22;100253.78;;;3.82;100.00
54854;BME280;40747;49.480;8.658;2022-12-05T01:26:48;100262.47;;;3.89;100.00
54854;BME280;40747;49.480;8.658;2022-12-05T01:29:15;100245.09;;;3.82;100.00
54854;BME280;40747;49.480;8.658;2022-12-05T01:31:41;100250.31;;;3.82;100.00
54854;BME280;40747;49.480;8.658;2022-12-05T01:34:09;100251.16;;;3.87;100.00
54854;BME280;40747;49.480;8.658;2022-12-05T01:36:36;100258.97;;;3.93;100.00
54854;BME280;40747;49.480;8.658;2022-12-05T01:39:03;100232.03;;;3.91;100.00
54854;BME280;40747;49.480;8.658;2022-12-05T01:41:32;100258.91;;;4.05;100.00
54854;BME280;40747;49.480;8.658;2022-12-05T01:44:06;100258.03;;;4.06;100.00
54854;BME280;40747;49.480;8.658;2022-12-05T01:46:34;100254.53;;;4.07;100.00
54854;BME280;40747;49.480;8.658;2022-12-05T01:49:06;100244.13;;;4.07;100.00
54854;BME280;40747;49.480;8.658;2022-12-05T01:51:35;100259.72;;;4.15;100.00
54854;BME280;40747;49.480;8.658;2022-12-05T01:54:03;100254.53;;;4.12;100.00
54854;BME280;40747;49.480;8.658;2022-12-05T01:56:31;100246.84;;;3.83;100.00
54854;BME280;40747;49.480;8.658;2022-12-05T01:58:59;100250.31;;;3.77;100.00
54854;BME280;40747;49.480;8.658;2022-12-05T02:01:25;100259.84;;;3.92;100.00
54854;BME280;40747;49.480;8.658;2022-12-05T02:03:51;100263.28;;;3.96;100.00
54854;BME280;40747;49.480;8.658;2022-12-05T02:06:20;100252.94;;;3.80;100.00
54854;BME280;40747;49.480;8.658;2022-12-05T02:08:47;100272.00;;;3.93;100.00
54854;BME280;40747;49.480;8.658;2022-12-05T02:11:12;100261.59;;;3.87;100.00
54854;BME280;40747;49.480;8.658;2022-12-05T02:16:15;100268.50;;;3.91;100.00
54854;BME280;40747;49.480;8.658;2022-12-05T02:18:53;100276.34;;;3.88;100.00
54854;BME280;40747;49.480;8.658;2022-12-05T02:26:54;100278.06;;;3.87;100.00
54854;BME280;40747;49.480;8.658;2022-12-05T02:32:55;100286.72;;;4.00;100.00
54854;BME280;40747;49.480;8.658;2022-12-05T02:38:00;100285.06;;;3.81;100.00
54854;BME280;40747;49.480;8.658;2022-12-05T02:40:38;100291.19;;;3.64;100.00
54854;BME280;40747;49.480;8.658;2022-12-05T02:43:13;100291.13;;;3.80;100.00
54854;BME280;40747;49.480;8.658;2022-12-05T02:45:41;100288.56;;;3.75;100.00
54854;BME280;40747;49.480;8.658;2022-12-05T02:48:10;100294.66;;;3.72;100.00
54854;BME280;40747;49.480;8.658;2022-12-05T02:50:39;100295.47;;;3.81;100.00
54854;BME280;40747;49.480;8.658;2022-12-05T02:53:09;100305.06;;;3.79;100.00
54854;BME280;40747;49.480;8.658;2022-12-05T02:55:36;100309.41;;;3.72;100.00
54854;BME280;40747;49.480;8.658;2022-12-05T02:58:07;100312.03;;;3.64;100.00
54854;BME280;40747;49.480;8.658;2022-12-05T03:00:34;100314.63;;;3.69;100.00
54854;BME280;40747;49.480;8.658;2022-12-05T03:03:00;100332.03;;;3.57;100.00
54854;BME280;40747;49.480;8.658;2022-12-05T03:08:32;100335.47;;;3.58;100.00
54854;BME280;40747;49.480;8.658;2022-12-05T03:11:00;100331.13;;;3.66;100.00
54854;BME280;40747;49.480;8.658;2022-12-05T03:13:32;100341.56;;;3.61;100.00
54854;BME280;40747;49.480;8.658;2022-12-05T03:16:04;100328.56;;;3.57;100.00
54854;BME280;40747;49.480;8.658;2022-12-05T03:18:36;100332.88;;;3.55;100.00
54854;BME280;40747;49.480;8.658;2022-12-05T03:21:09;100332.03;;;3.50;100.00
54854;BME280;40747;49.480;8.658;2022-12-05T03:23:44;100332.03;;;3.56;100.00
54854;BME280;40747;49.480;8.658;2022-12-05T03:34:48;100340.69;;;3.61;100.00
54854;BME280;40747;49.480;8.658;2022-12-05T03:37:21;100340.72;;;3.59;100.00
54854;BME280;40747;49.480;8.658;2022-12-05T03:40:03;100348.50;;;3.61;100.00
54854;BME280;40747;49.480;8.658;2022-12-05T03:42:32;100346.78;;;3.51;100.00
54854;BME280;40747;49.480;8.658;2022-12-05T03:45:11;100346.78;;;3.48;100.00
54854;BME280;40747;49.480;8.658;2022-12-05T03:47:50;100349.41;;;3.46;100.00
54854;BME280;40747;49.480;8.658;2022-12-05T03:50:27;100341.59;;;3.32;100.00
54854;BME280;40747;49.480;8.658;2022-12-05T03:53:01;100355.50;;;3.33;100.00
54854;BME280;40747;49.480;8.658;2022-12-05T03:55:29;100358.06;;;3.39;100.00
54854;BME280;40747;49.480;8.658;2022-12-05T03:58:00;100367.63;;;3.40;100.00
54854;BME280;40747;49.480;8.658;2022-12-05T04:00:32;100366.78;;;3.44;100.00
54854;BME280;40747;49.480;8.658;2022-12-05T04:06:20;100345.91;;;3.42;100.00
54854;BME280;40747;49.480;8.658;2022-12-05T04:08:55;100322.50;;;3.35;100.00
54854;BME280;40747;49.480;8.658;2022-12-05T04:11:25;100360.66;;;3.71;100.00
54854;BME280;40747;49.480;8.658;2022-12-05T04:13:54;100368.44;;;3.73;100.00
54854;BME280;40747;49.480;8.658;2022-12-05T04:16:29;100361.50;;;3.76;100.00
54854;BME280;40747;49.480;8.658;2022-12-05T04:21:54;100371.06;;;3.70;100.00
54854;BME280;40747;49.480;8.658;2022-12-05T04:24:27;100370.19;;;3.72;100.00
54854;BME280;40747;49.480;8.658;2022-12-05T04:30:19;100360.63;;;3.79;100.00
54854;BME280;40747;49.480;8.658;2022-12-05T04:36:00;100360.59;;;3.93;100.00
54854;BME280;40747;49.480;8.658;2022-12-05T04:38:33;100360.56;;;4.05;100.00
54854;BME280;40747;49.480;8.658;2022-12-05T04:41:05;100360.53;;;4.12;100.00
54854;BME280;40747;49.480;8.658;2022-12-05T04:43:34;100359.66;;;4.17;100.00
54854;BME280;40747;49.480;8.658;2022-12-05T04:46:04;100363.97;;;4.17;100.00
54854;BME280;40747;49.480;8.658;2022-12-05T04:48:33;100360.50;;;4.18;100.00
54854;BME280;40747;49.480;8.658;2022-12-05T04:51:00;100367.50;;;4.09;100.00
54854;BME280;40747;49.480;8.658;2022-12-05T04:53:28;100366.63;;;4.07;100.00
54854;BME280;40747;49.480;8.658;2022-12-05T04:55:57;100356.22;;;4.06;100.00
54854;BME280;40747;49.480;8.658;2022-12-05T04:58:24;100366.63;;;4.03;100.00
54854;BME280;40747;49.480;8.658;2022-12-05T05:01:06;100364.91;;;4.05;100.00
54854;BME280;40747;49.480;8.658;2022-12-05T05:03:44;100363.13;;;4.15;100.00
54854;BME280;40747;49.480;8.658;2022-12-05T05:06:13;100360.53;;;4.10;100.00
54854;BME280;40747;49.480;8.658;2022-12-05T05:08:51;100350.97;;;4.12;100.00
54854;BME280;40747;49.480;8.658;2022-12-05T05:11:23;100359.66;;;4.13;100.00
54854;BME280;40747;49.480;8.658;2022-12-05T05:13:48;100356.19;;;4.07;100.00
54854;BME280;40747;49.480;8.658;2022-12-05T05:16:20;100362.31;;;4.02;100.00
54854;BME280;40747;49.480;8.658;2022-12-05T05:18:47;100367.50;;;4.00;100.00
54854;BME280;40747;49.480;8.658;2022-12-05T05:23:48;100370.13;;;4.00;100.00
54854;BME280;40747;49.480;8.658;2022-12-05T05:26:14;100365.91;;;3.25;100.00
54854;BME280;40747;49.480;8.658;2022-12-05T05:28:39;100375.34;;;2.66;100.00
54854;BME280;40747;49.480;8.658;2022-12-05T05:31:05;100371.81;;;2.34;100.00
54854;BME280;40747;49.480;8.658;2022-12-05T05:33:31;100363.13;;;2.29;100.00
54854;BME280;40747;49.480;8.658;2022-12-05T05:35:56;100362.28;;;2.44;100.00
54854;BME280;40747;49.480;8.658;2022-12-05T05:38:22;100360.59;;;2.52;100.00
54854;BME280;40747;49.480;8.658;2022-12-05T05:40:47;100365.00;;;2.78;100.00
54854;BME280;40747;49.480;8.658;2022-12-05T05:43:12;100362.34;;;2.67;100.00
54854;BME280;40747;49.480;8.658;2022-12-05T05:45:37;100372.78;;;2.70;100.00
54854;BME280;40747;49.480;8.658;2022-12-05T05:48:03;100377.13;;;2.79;100.00
54854;BME280;40747;49.480;8.658;2022-12-05T05:50:28;100377.06;;;2.60;100.00
54854;BME280;40747;49.480;8.658;2022-12-05T05:52:54;100384.00;;;2.65;100.00
54854;BME280;40747;49.480;8.658;2022-12-05T05:55:19;100377.09;;;2.65;100.00
54854;BME280;40747;49.480;8.658;2022-12-05T05:57:45;100397.03;;;2.72;100.00
54854;BME280;40747;49.480;8.658;2022-12-05T06:00:11;100394.47;;;2.82;100.00
54854;BME280;40747;49.480;8.658;2022-12-05T06:02:37;100399.59;;;2.51;100.00
54854;BME280;40747;49.480;8.658;2022-12-05T06:05:03;100403.06;;;2.62;100.00
54854;BME280;40747;49.480;8.658;2022-12-05T06:07:28;100409.16;;;2.62;100.00
54854;BME280;40747;49.480;8.658;2022-12-05T06:09:54;100399.66;;;2.75;100.00
54854;BME280;40747;49.480;8.658;2022-12-05T06:12:19;100370.19;;;2.76;100.00
54854;BME280;40747;49.480;8.658;2022-12-05T06:14:47;100406.66;;;3.17;100.00
54854;BME280;40747;49.480;8.658;2022-12-05T06:17:13;100403.22;;;3.24;100.00
54854;BME280;40747;49.480;8.658;2022-12-05T06:19:38;100404.09;;;3.43;100.00
54854;BME280;40747;49.480;8.658;2022-12-05T06:22:04;100415.34;;;3.60;100.00
54854;BME280;40747;49.480;8.658;2022-12-05T06:24:29;100418.81;;;3.64;100.00
54854;BME280;40747;49.480;8.658;2022-12-05T06:26:54;100417.06;;;3.71;100.00
54854;BME280;40747;49.480;8.658;2022-12-05T06:29:20;100400.56;;;3.78;100.00
54854;BME280;40747;49.480;8.658;2022-12-05T06:31:45;100417.91;;;4.02;100.00
54854;BME280;40747;49.480;8.658;2022-12-05T06:34:10;100418.78;;;4.00;100.00
54854;BME280;40747;49.480;8.658;2022-12-05T06:36:36;100417.03;;;3.99;100.00
54854;BME280;40747;49.480;8.658;2022-12-05T06:39:02;100420.53;;;3.96;100.00
54854;BME280;40747;49.480;8.658;2022-12-05T06:41:27;100417.88;;;4.10;100.00
54854;BME280;40747;49.480;8.658;2022-12-05T06:43:54;100429.16;;;4.17;100.00
54854;BME280;40747;49.480;8.658;2022-12-05T06:46:20;100435.25;;;4.13;100.00
54854;BME280;40747;49.480;8.658;2022-12-05T06:48:46;100438.75;;;4.10;100.00
54854;BME280;40747;49.480;8.658;2022-12-05T06:51:13;100446.56;;;4.16;100.00
54854;BME280;40747;49.480;8.658;2022-12-05T06:53:39;100453.50;;;4.06;100.00
54854;BME280;40747;49.480;8.658;2022-12-05T06:56:06;100454.41;;;3.88;100.00
54854;BME280;40747;49.480;8.658;2022-12-05T06:58:32;100455.25;;;3.95;100.00
54854;BME280;40747;49.480;8.658;2022-12-05T07:00:57;100457.88;;;4.01;100.00
54854;BME280;40747;49.480;8.658;2022-12-05T07:03:41;100462.25;;;3.99;100.00
54854;BME280;40747;49.480;8.658;2022-12-05T07:06:11;100464.81;;;4.02;100.00
54854;BME280;40747;49.480;8.658;2022-12-05T07:08:37;100457.88;;;3.92;100.00
54854;BME280;40747;49.480;8.658;2022-12-05T07:11:02;100464.84;;;3.93;100.00
54854;BME280;40747;49.480;8.658;2022-12-05T07:13:28;100469.19;;;3.89;100.00
54854;BME280;40747;49.480;8.658;2022-12-05T07:15:53;100461.38;;;3.96;100.00
54854;BME280;40747;49.480;8.658;2022-12-05T07:18:18;100477.00;;;3.92;100.00
54854;BME280;40747;49.480;8.658;2022-12-05T07:20:44;100471.78;;;3.96;100.00
54854;BME280;40747;49.480;8.658;2022-12-05T07:23:10;100461.38;;;4.02;100.00
54854;BME280;40747;49.480;8.658;2022-12-05T07:25:40;100475.25;;;3.96;100.00
54854;BME280;40747;49.480;8.658;2022-12-05T07:28:06;100470.06;;;3.93;100.00
54854;BME280;40747;49.480;8.658;2022-12-05T07:30:31;100480.47;;;3.90;100.00
54854;BME280;40747;49.480;8.658;2022-12-05T07:32:56;100474.38;;;3.91;100.00
54854;BME280;40747;49.480;8.658;2022-12-05T07:35:22;100473.53;;;3.89;100.00
54854;BME280;40747;49.480;8.658;2022-12-05T07:37:47;100479.59;;;3.85;100.00
54854;BME280;40747;49.480;8.658;2022-12-05T07:40:13;100476.13;;;3.97;100.00
54854;BME280;40747;49.480;8.658;2022-12-05T07:42:38;100484.81;;;4.05;100.00
54854;BME280;40747;49.480;8.658;2022-12-05T07:45:04;100485.66;;;4.15;100.00
54854;BME280;40747;49.480;8.658;2022-12-05T07:47:29;100479.59;;;4.11;100.00
54854;BME280;40747;49.480;8.658;2022-12-05T07:49:55;100480.47;;;4.08;100.00
54854;BME280;40747;49.480;8.658;2022-12-05T07:52:20;100474.41;;;3.96;100.00
54854;BME280;40747;49.480;8.658;2022-12-05T07:54:46;100490.91;;;4.01;100.00
54854;BME280;40747;49.480;8.658;2022-12-05T07:57:11;100486.53;;;4.07;100.00
54854;BME280;40747;49.480;8.658;2022-12-05T07:59:36;100489.97;;;4.28;100.00
54854;BME280;40747;49.480;8.658;2022-12-05T08:02:02;100475.22;;;4.24;100.00
54854;BME280;40747;49.480;8.658;2022-12-05T08:04:27;100489.13;;;4.23;100.00
54854;BME280;40747;49.480;8.658;2022-12-05T08:06:52;100470.88;;;4.09;100.00
54854;BME280;40747;49.480;8.658;2022-12-05T08:09:18;100505.63;;;4.20;100.00
54854;BME280;40747;49.480;8.658;2022-12-05T08:11:43;100499.56;;;4.28;100.00
54854;BME280;40747;49.480;8.658;2022-12-05T08:14:08;100509.09;;;4.33;100.00
54854;BME280;40747;49.480;8.658;2022-12-05T08:16:34;100512.59;;;4.34;100.00
54854;BME280;40747;49.480;8.658;2022-12-05T08:19:02;100513.41;;;4.43;100.00
54854;BME280;40747;49.480;8.658;2022-12-05T08:21:28;100516.91;;;4.39;100.00
54854;BME280;40747;49.480;8.658;2022-12-05T08:23:53;100516.06;;;4.33;100.00
54854;BME280;40747;49.480;8.658;2022-12-05T08:26:22;100522.13;;;4.42;100.00
54854;BME280;40747;49.480;8.658;2022-12-05T08:28:57;100525.59;;;4.43;100.00
54854;BME280;40747;49.480;8.658;2022-12-05T08:31:24;100513.44;;;4.34;100.00
54854;BME280;40747;49.480;8.658;2022-12-05T08:33:51;100531.69;;;4.34;100.00
54854;BME280;40747;49.480;8.658;2022-12-05T08:36:17;100530.81;;;4.32;100.00
54854;BME280;40747;49.480;8.658;2022-12-05T08:38:43;100499.59;;;4.00;100.00
54854;BME280;40747;49.480;8.658;2022-12-05T08:41:11;100535.16;;;4.33;100.00
54854;BME280;40747;49.480;8.658;2022-12-05T08:43:37;100529.94;;;4.38;100.00
54854;BME280;40747;49.480;8.658;2022-12-05T08:46:03;100536.03;;;4.41;100.00
54854;BME280;40747;49.480;8.658;2022-12-05T08:48:29;100542.09;;;4.43;100.00
54854;BME280;40747;49.480;8.658;2022-12-05T08:50:56;100539.47;;;4.50;100.00
54854;BME280;40747;49.480;8.658;2022-12-05T08:53:22;100541.19;;;4.62;100.00
54854;BME280;40747;49.480;8.658;2022-12-05T08:55:48;100535.09;;;4.64;100.00
54854;BME280;40747;49.480;8.658;2022-12-05T08:58:13;100539.47;;;4.67;100.00
54854;BME280;40747;49.480;8.658;2022-12-05T09:00:39;100548.13;;;4.70;100.00
54854;BME280;40747;49.480;8.658;2022-12-05T09:03:04;100548.16;;;4.66;100.00
54854;BME280;40747;49.480;8.658;2022-12-05T09:05:30;100548.13;;;4.70;100.00
54854;BME280;40747;49.480;8.658;2022-12-05T09:07:55;100549.81;;;4.81;100.00
54854;BME280;40747;49.480;8.658;2022-12-05T09:10:21;100565.53;;;4.74;100.00
54854;BME280;40747;49.480;8.658;2022-12-05T09:12:46;100556.81;;;4.80;100.00
54854;BME280;40747;49.480;8.658;2022-12-05T09:15:12;100564.63;;;4.82;100.00
54854;BME280;40747;49.480;8.658;2022-12-05T09:17:38;100538.53;;;4.75;100.00
54854;BME280;40747;49.480;8.658;2022-12-05T09:20:05;100567.22;;;4.89;100.00
54854;BME280;40747;49.480;8.658;2022-12-05T09:22:32;100570.69;;;4.93;100.00
54854;BME280;40747;49.480;8.658;2022-12-05T09:24:57;100572.41;;;5.00;100.00
54854;BME280;40747;49.480;8.658;2022-12-05T09:27:24;100569.81;;;4.91;100.00
54854;BME280;40747;49.480;8.658;2022-12-05T09:29:49;100582.84;;;5.02;100.00
54854;BME280;40747;49.480;8.658;2022-12-05T09:32:15;100587.25;;;4.87;100.00
54854;BME280;40747;49.480;8.658;2022-12-05T09:34:40;100589.81;;;4.92;100.00
54854;BME280;40747;49.480;8.658;2022-12-05T09:37:06;100588.94;;;4.98;100.00
54854;BME280;40747;49.480;8.658;2022-12-05T09:39:33;100588.06;;;4.97;100.00
54854;BME280;40747;49.480;8.658;2022-12-05T09:42:11;100595.91;;;4.94;100.00
54854;BME280;40747;49.480;8.658;2022-12-05T09:48:13;100594.13;;;5.02;100.00
54854;BME280;40747;49.480;8.658;2022-12-05T09:50:49;100585.47;;;4.91;100.00
54854;BME280;40747;49.480;8.658;2022-12-05T09:53:32;100589.81;;;5.01;100.00
54854;BME280;40747;49.480;8.658;2022-12-05T09:58:52;100577.63;;;5.00;100.00
54854;BME280;40747;49.480;8.658;2022-12-05T10:01:44;100584.50;;;5.15;100.00
54854;BME280;40747;49.480;8.658;2022-12-05T10:04:48;100584.53;;;5.17;100.00
54854;BME280;40747;49.480;8.658;2022-12-05T10:10:21;100585.44;;;5.08;100.00
54854;BME280;40747;49.480;8.658;2022-12-05T10:12:58;100579.38;;;4.98;100.00
54854;BME280;40747;49.480;8.658;2022-12-05T10:18:01;100580.28;;;4.82;100.00
54854;BME280;40747;49.480;8.658;2022-12-05T10:20:32;100582.03;;;4.78;100.00
54854;BME280;40747;49.480;8.658;2022-12-05T10:23:11;100582.84;;;4.91;100.00
54854;BME280;40747;49.480;8.658;2022-12-05T10:25:41;100578.53;;;4.87;100.00
54854;BME280;40747;49.480;8.658;2022-12-05T10:28:29;100583.72;;;4.98;100.00
54854;BME280;40747;49.480;8.658;2022-12-05T10:30:57;100579.28;;;5.20;100.00
54854;BME280;40747;49.480;8.658;2022-12-05T10:33:27;100587.09;;;5.23;100.00
54854;BME280;40747;49.480;8.658;2022-12-05T10:35:55;100585.34;;;5.30;100.00
54854;BME280;40747;49.480;8.658;2022-12-05T10:38:28;100583.59;;;5.33;100.00
54854;BME280;40747;49.480;8.658;2022-12-05T10:40:58;100583.56;;;5.35;100.00
54854;BME280;40747;49.480;8.658;2022-12-05T10:43:29;100589.69;;;5.32;100.00
54854;BME280;40747;49.480;8.658;2022-12-05T10:45:56;100589.69;;;5.28;100.00
54854;BME280;40747;49.480;8.658;2022-12-05T10:48:22;100586.28;;;5.10;100.00
54854;BME280;40747;49.480;8.658;2022-12-05T10:50:50;100593.22;;;5.16;100.00
54854;BME280;40747;49.480;8.658;2022-12-05T10:53:20;100590.66;;;5.02;100.00
54854;BME280;40747;49.480;8.658;2022-12-05T10:55:47;100590.69;;;4.96;100.00
54854;BME280;40747;49.480;8.658;2022-12-05T10:58:17;100588.94;;;5.01;100.00
54854;BME280;40747;49.480;8.658;2022-12-05T11:00:49;100592.41;;;4.98;100.00
54854;BME280;40747;49.480;8.658;2022-12-05T11:05:53;100579.34;;;5.04;100.00
54854;BME280;40747;49.480;8.658;2022-12-05T11:08:27;100583.75;;;4.81;100.00
54854;BME280;40747;49.480;8.658;2022-12-05T11:11:04;100586.34;;;4.88;100.00
54854;BME280;40747;49.480;8.658;2022-12-05T11:13:30;100579.41;;;4.83;100.00
54854;BME280;40747;49.480;8.658;2022-12-05T11:15:56;100571.53;;;4.92;100.00
54854;BME280;40747;49.480;8.658;2022-12-05T11:20:50;100577.59;;;5.06;100.00
54854;BME280;40747;49.480;8.658;2022-12-05T11:23:27;100559.38;;;4.94;100.00
54854;BME280;40747;49.480;8.658;2022-12-05T11:25:54;100573.25;;;5.02;100.00
54854;BME280;40747;49.480;8.658;2022-12-05T11:33:28;100573.22;;;5.10;100.00
54854;BME280;40747;49.480;8.658;2022-12-05T11:36:00;100553.25;;;5.01;100.00
54854;BME280;40747;49.480;8.658;2022-12-05T11:38:27;100572.38;;;5.05;100.00
54854;BME280;40747;49.480;8.658;2022-12-05T11:52:39;100570.53;;;5.24;100.00
54854;BME280;40747;49.480;8.658;2022-12-05T11:58:04;100556.59;;;5.31;100.00
54854;BME280;40747;49.480;8.658;2022-12-05T12:03:44;100548.69;;;5.44;100.00
54854;BME280;40747;49.480;8.658;2022-12-05T12:06:24;100551.31;;;5.44;100.00
54854;BME280;40747;49.480;8.658;2022-12-05T12:12:07;100556.44;;;5.59;100.00
54854;BME280;40747;49.480;8.658;2022-12-05T12:14:43;100546.84;;;5.63;100.00
54854;BME280;40747;49.480;8.658;2022-12-05T12:17:21;100553.75;;;5.68;100.00
54854;BME280;40747;49.480;8.658;2022-12-05T12:22:38;100554.69;;;5.58;100.00
54854;BME280;40747;49.480;8.658;2022-12-05T12:30:19;100555.56;;;5.57;100.00
54854;BME280;40747;49.480;8.658;2022-12-05T12:35:39;100544.31;;;5.49;100.00
54854;BME280;40747;49.480;8.658;2022-12-05T12:38:41;100549.63;;;5.33;100.00
54854;BME280;40747;49.480;8.658;2022-12-05T12:43:51;100554.84;;;5.30;100.00
54854;BME280;40747;49.480;8.658;2022-12-05T12:49:17;100551.19;;;5.62;100.00
54854;BME280;40747;49.480;8.658;2022-12-05T12:52:17;100542.44;;;5.69;100.00
54854;BME280;40747;49.480;8.658;2022-12-05T12:57:21;100544.03;;;5.89;100.00
54854;BME280;40747;49.480;8.658;2022-12-05T13:02:23;100538.88;;;5.77;100.00
54854;BME280;40747;49.480;8.658;2022-12-05T13:04:58;100542.34;;;5.80;100.00
54854;BME280;40747;49.480;8.658;2022-12-05T13:08:03;100541.47;;;5.81;100.00
54854;BME280;40747;49.480;8.658;2022-12-05T13:10:32;100519.81;;;5.64;100.00
54854;BME280;40747;49.480;8.658;2022-12-05T13:13:01;100547.56;;;5.80;100.00
54854;BME280;40747;49.480;8.658;2022-12-05T13:15:38;100538.06;;;5.70;100.00
54854;BME280;40747;49.480;8.658;2022-12-05T13:18:14;100518.97;;;5.60;100.00
54854;BME280;40747;49.480;8.658;2022-12-05T13:20:40;100549.38;;;5.73;100.00
54854;BME280;40747;49.480;8.658;2022-12-05T13:23:06;100549.47;;;5.55;100.00
54854;BME280;40747;49.480;8.658;2022-12-05T13:25:38;100549.50;;;5.52;100.00
54854;BME280;40747;49.480;8.658;2022-12-05T13:28:05;100557.34;;;5.47;100.00
54854;BME280;40747;49.480;8.658;2022-12-05T13:30:34;100557.44;;;5.36;100.00
54854;BME280;40747;49.480;8.658;2022-12-05T13:33:25;100545.19;;;5.46;100.00
54854;BME280;40747;49.480;8.658;2022-12-05T13:35:55;100561.63;;;5.65;100.00
54854;BME280;40747;49.480;8.658;2022-12-05T13:38:40;100561.63;;;5.64;100.00
54854;BME280;40747;49.480;8.658;2022-12-05T13:41:39;100558.94;;;5.71;100.00
54854;BME280;40747;49.480;8.658;2022-12-05T13:44:34;100565.09;;;5.70;100.00
54854;BME280;40747;49.480;8.658;2022-12-05T13:47:01;100568.56;;;5.69;100.00
54854;BME280;40747;49.480;8.658;2022-12-05T13:49:35;100567.72;;;5.64;100.00
54854;BME280;40747;49.480;8.658;2022-12-05T13:52:19;100569.41;;;5.73;100.00
54854;BME280;40747;49.480;8.658;2022-12-05T13:54:53;100573.78;;;5.69;100.00
54854;BME280;40747;49.480;8.658;2022-12-05T14:07:43;100576.31;;;5.82;100.00
54854;BME280;40747;49.480;8.658;2022-12-05T14:10:11;100571.88;;;5.93;100.00
54854;BME280;40747;49.480;8.658;2022-12-05T14:15:37;100572.72;;;5.98;100.00
54854;BME280;40747;49.480;8.658;2022-12-05T14:18:21;100566.53;;;6.09;100.00
54854;BME280;40747;49.480;8.658;2022-12-05T14:24:04;100568.38;;;5.94;100.00
54854;BME280;40747;49.480;8.658;2022-12-05T14:29:46;100570.94;;;6.06;100.00
54854;BME280;40747;49.480;8.658;2022-12-05T14:32:39;100577.91;;;6.07;100.00
54854;BME280;40747;49.480;8.658;2022-12-05T14:35:14;100574.44;;;6.05;100.00
54854;BME280;40747;49.480;8.658;2022-12-05T14:37:53;100583.16;;;6.03;100.00
54854;BME280;40747;49.480;8.658;2022-12-05T14:42:56;100579.72;;;5.95;100.00
54854;BME280;40747;49.480;8.658;2022-12-05T14:47:59;100591.06;;;5.89;100.00
54854;BME280;40747;49.480;8.658;2022-12-05T14:50:46;100587.59;;;5.90;100.00
54854;BME280;40747;49.480;8.658;2022-12-05T14:53:25;100585.78;;;6.03;100.00
54854;BME280;40747;49.480;8.658;2022-12-05T14:56:17;100584.06;;;5.99;100.00
54854;BME280;40747;49.480;8.658;2022-12-05T14:58:47;100599.75;;;5.94;100.00
54854;BME280;40747;49.480;8.658;2022-12-05T15:01:16;100593.63;;;5.97;100.00
54854;BME280;40747;49.480;8.658;2022-12-05T15:04:01;100598.09;;;5.84;100.00
54854;BME280;40747;49.480;8.658;2022-12-05T15:06:27;100596.28;;;5.90;100.00
54854;BME280;40747;49.480;8.658;2022-12-05T15:08:55;100596.28;;;5.95;100.00
54854;BME280;40747;49.480;8.658;2022-12-05T15:11:23;100599.75;;;5.96;100.00
54854;BME280;40747;49.480;8.658;2022-12-05T15:13:58;100575.47;;;5.75;99.91